createdAt,value
2019-02-11T08:51:09.692Z,4.60
2019-02-11T08:56:14.706Z,4.43
2019-02-11T09:01:18.299Z,4.40
2019-02-11T09:06:23.785Z,4.40
2019-02-11T09:11:28.228Z,4.50
2019-02-11T09:16:31.788Z,4.17
2019-02-11T09:21:35.403Z,4.07
2019-02-11T09:26:40.074Z,4.23
2019-02-11T09:31:43.760Z,4.50
2019-02-11T09:36:47.326Z,3.50
2019-02-11T09:41:51.060Z,4.07
2019-02-11T09:46:54.693Z,4.80
2019-02-11T09:51:58.369Z,4.00
2019-02-11T09:57:02.062Z,3.87
2019-02-11T10:02:06.714Z,3.57
2019-02-11T10:07:10.264Z,3.97
2019-02-11T10:12:21.242Z,4.87
2019-02-11T10:17:19.313Z,3.80
2019-02-11T10:22:24.449Z,3.77
2019-02-11T10:27:29.531Z,4.00
2019-02-11T10:32:33.314Z,2.83
2019-02-11T10:37:36.938Z,3.43
2019-02-11T10:42:40.670Z,4.10
2019-02-11T10:47:44.508Z,3.40
2019-02-11T10:52:48.200Z,3.40
2019-02-11T10:57:51.921Z,3.77
2019-02-11T11:02:55.640Z,3.30
2019-02-11T11:08:00.277Z,3.87
2019-02-11T11:13:05.024Z,3.37
2019-02-11T11:18:10.275Z,3.53
2019-02-11T11:23:16.911Z,3.60
2019-02-11T11:28:21.178Z,4.67
2019-02-11T11:33:26.253Z,5.30
2019-02-11T11:38:29.891Z,3.60
2019-02-11T11:43:35.216Z,3.77
2019-02-11T11:48:41.005Z,3.80
2019-02-11T11:53:44.781Z,3.20
2019-02-11T11:58:48.400Z,4.10
2019-02-11T12:03:54.418Z,3.57
2019-02-11T12:08:59.700Z,3.30
2019-02-11T12:14:05.441Z,3.00
2019-02-11T12:19:09.687Z,3.37
2019-02-11T12:24:13.816Z,3.30
2019-02-11T12:29:17.538Z,4.00
2019-02-11T12:34:21.353Z,3.20
2019-02-11T12:39:25.020Z,3.40
2019-02-11T12:44:28.991Z,3.47
2019-02-11T12:49:32.631Z,2.80
2019-02-11T12:54:36.454Z,2.80
2019-02-11T12:59:41.219Z,3.40
2019-02-11T13:04:44.907Z,3.40
2019-02-11T13:09:48.982Z,3.53
2019-02-11T13:14:52.813Z,4.00
2019-02-11T13:20:08.240Z,3.63
2019-02-11T13:25:07.990Z,4.53
2019-02-11T13:30:15.825Z,4.17
2019-02-11T13:35:19.537Z,3.27
2019-02-11T13:40:23.159Z,3.73
2019-02-11T13:45:26.814Z,3.87
2019-02-11T13:50:30.528Z,3.73
2019-02-11T13:55:34.877Z,4.30
2019-02-11T14:00:40.603Z,3.43
2019-02-11T14:05:44.256Z,3.30
2019-02-11T14:10:47.752Z,4.00
2019-02-11T14:15:53.145Z,4.50
2019-02-11T14:21:00.158Z,4.30
2019-02-11T14:26:03.893Z,3.50
2019-02-11T14:31:07.567Z,3.30
2019-02-11T14:36:11.216Z,3.40
2019-02-11T14:41:17.226Z,3.50
2019-02-11T14:46:21.095Z,3.20
2019-02-11T14:51:24.715Z,3.63
2019-02-11T14:56:28.325Z,3.70
2019-02-11T15:01:31.950Z,3.80
2019-02-11T15:06:35.663Z,4.00
2019-02-11T15:13:12.827Z,3.93
2019-02-11T15:18:14.903Z,3.80
2019-02-11T15:23:17.390Z,2.97
2019-02-11T15:28:23.157Z,3.43
2019-02-11T15:33:25.453Z,2.93
2019-02-11T15:38:29.261Z,3.10
2019-02-11T15:43:32.814Z,3.40
2019-02-11T15:48:42.616Z,3.33
2019-02-11T15:53:39.115Z,3.23
2019-02-11T15:58:43.126Z,3.57
2019-02-11T16:03:45.530Z,3.63
2019-02-11T16:08:47.958Z,3.67
2019-02-11T16:13:50.252Z,3.20
2019-02-11T16:18:52.268Z,4.47
2019-02-11T16:23:55.672Z,4.00
2019-02-11T16:28:57.736Z,3.57
2019-02-11T16:34:05.106Z,3.50
2019-02-11T16:39:08.558Z,3.70
2019-02-11T16:44:10.685Z,3.23
2019-02-11T16:49:14.166Z,4.57
2019-02-11T16:54:16.589Z,3.57
2019-02-11T16:59:19.017Z,3.20
2019-02-11T17:04:21.687Z,4.03
2019-02-11T17:09:23.710Z,4.37
2019-02-11T17:14:26.128Z,4.50
2019-02-11T17:19:30.284Z,3.63
2019-02-11T17:24:34.790Z,4.20
2019-02-11T17:29:39.357Z,3.57
2019-02-11T17:34:41.613Z,3.93
2019-02-11T17:39:44.130Z,4.17
2019-02-11T17:44:48.802Z,4.13
2019-02-11T17:49:50.886Z,3.60
2019-02-11T17:54:53.178Z,3.40
2019-02-11T17:59:56.476Z,4.27
2019-02-11T18:05:01.344Z,5.30
2019-02-11T18:10:05.215Z,5.03
2019-02-11T18:15:07.890Z,4.37
2019-02-11T18:20:11.477Z,4.93
2019-02-11T18:25:15.259Z,5.10
2019-02-11T18:30:17.280Z,4.70
2019-02-11T18:35:19.553Z,5.30
2019-02-11T18:40:21.583Z,5.40
2019-02-11T18:45:25.331Z,5.20
2019-02-11T18:50:30.420Z,5.30
2019-02-11T18:55:41.850Z,4.77
2019-02-11T19:00:46.676Z,4.93
2019-02-11T19:05:48.770Z,5.13
2019-02-11T19:10:52.734Z,5.43
2019-02-11T19:15:55.183Z,5.63
2019-02-11T19:20:57.207Z,5.30
2019-02-11T19:25:59.226Z,5.30
2019-02-11T19:31:01.242Z,5.23
2019-02-11T19:36:04.769Z,4.70
2019-02-11T19:41:06.787Z,4.43
2019-02-11T19:46:09.031Z,5.00
2019-02-11T19:51:11.036Z,5.23
2019-02-11T19:56:13.305Z,4.40
2019-02-11T20:01:15.355Z,4.97
2019-02-11T20:06:17.704Z,5.23
2019-02-11T20:11:22.231Z,5.57
2019-02-11T20:16:26.128Z,5.97
2019-02-11T20:21:28.151Z,5.73
2019-02-11T20:26:30.365Z,6.33
2019-02-11T20:31:32.419Z,5.57
2019-02-11T20:36:34.704Z,6.10
2019-02-11T20:41:36.950Z,6.40
2019-02-11T20:46:39.410Z,5.43
2019-02-11T20:51:41.507Z,5.70
2019-02-11T20:56:43.788Z,5.80
2019-02-11T21:01:45.889Z,5.23
2019-02-11T21:06:48.326Z,5.40
2019-02-11T21:11:51.474Z,5.60
2019-02-11T21:16:53.475Z,6.13
2019-02-11T21:21:56.594Z,6.37
2019-02-11T21:26:58.646Z,5.93
2019-02-11T21:32:00.792Z,5.60
2019-02-11T21:37:02.738Z,4.60
2019-02-11T21:42:05.100Z,5.43
2019-02-11T21:47:07.368Z,5.37
2019-02-11T21:52:09.426Z,5.60
2019-02-11T21:57:13.930Z,5.33
2019-02-11T22:02:16.072Z,6.07
2019-02-11T22:07:18.233Z,5.23
2019-02-11T22:12:26.197Z,6.57
2019-02-11T22:17:28.979Z,5.57
2019-02-11T22:22:31.054Z,4.97
2019-02-11T22:27:33.069Z,5.17
2019-02-11T22:32:35.515Z,5.37
2019-02-11T22:37:37.563Z,5.33
2019-02-11T22:42:42.353Z,4.80
2019-02-11T22:47:44.715Z,5.00
2019-02-11T22:52:47.159Z,6.33
2019-02-11T22:57:52.681Z,5.70
2019-02-11T23:02:57.545Z,4.60
2019-02-11T23:08:00.138Z,5.03
2019-02-11T23:13:02.226Z,5.00
2019-02-11T23:18:05.754Z,4.27
2019-02-11T23:23:08.503Z,5.00
2019-02-11T23:28:10.728Z,4.70
2019-02-11T23:33:14.999Z,4.33
2019-02-11T23:38:17.421Z,4.00
2019-02-11T23:43:19.514Z,4.93
2019-02-11T23:48:25.408Z,4.50
2019-02-11T23:53:28.323Z,4.87
2019-02-11T23:58:30.865Z,4.13
